Time;durP1;ratioP1;P1;durP2;ratioP2;P2;SDS_P1;SDS_P2;PMS_P1;PMS_P2;Temp;Humidity;BMP_temperature;BMP_pressure;BME280_temperature;BME280_humidity;BME280_pressure;Samples;Min_cycle;Max_cycle;Signal;HPM_P1;HPM_P2
2024/01/02 00:02:22;;;;;;;9.88;2.88;;;6.80;90.10;;;;;;4876274;29;20425;-78
2024/01/02 00:04:48;;;;;;;8.60;2.85;;;6.80;90.20;;;;;;4878482;29;20048;-78
2024/01/02 00:07:14;;;;;;;5.72;2.08;;;6.80;90.20;;;;;;4880028;29;20041;-77
2024/01/02 00:09:40;;;;;;;9.40;2.70;;;6.80;90.40;;;;;;4878514;29;20141;-77
2024/01/02 00:12:07;;;;;;;9.38;2.80;;;6.80;90.30;;;;;;4879667;29;20041;-77
2024/01/02 00:14:33;;;;;;;8.18;2.55;;;6.80;90.40;;;;;;4879555;29;20044;-77
2024/01/02 00:16:59;;;;;;;11.80;2.42;;;6.80;90.50;;;;;;4877993;29;20037;-77
2024/01/02 00:19:24;;;;;;;10.27;3.13;;;6.80;90.50;;;;;;4893998;29;20064;-77
2024/01/02 00:21:51;;;;;;;11.40;2.65;;;6.80;90.60;;;;;;4881879;29;20045;-78
2024/01/02 00:24:17;;;;;;;8.60;2.60;;;6.90;90.70;;;;;;4877669;29;20409;-78
2024/01/02 00:26:42;;;;;;;7.95;2.55;;;6.80;90.70;;;;;;4881382;29;20039;-78
2024/01/02 00:29:08;;;;;;;8.57;2.92;;;6.80;90.80;;;;;;4896118;29;20070;-77
2024/01/02 00:31:33;;;;;;;12.73;2.80;;;6.90;90.80;;;;;;4880994;29;20049;-78
2024/01/02 00:33:59;;;;;;;11.50;3.70;;;6.80;90.90;;;;;;4896345;29;20036;-78
2024/01/02 00:36:24;;;;;;;13.63;2.72;;;6.80;91.20;;;;;;4880177;29;20131;-78
2024/01/02 00:38:50;;;;;;;13.90;2.67;;;6.90;91.10;;;;;;4896712;29;20032;-78
2024/01/02 00:41:15;;;;;;;10.82;2.40;;;6.80;91.10;;;;;;4883139;29;20511;-78
2024/01/02 00:43:41;;;;;;;10.63;3.00;;;6.80;91.10;;;;;;4895039;29;20037;-78
2024/01/02 00:46:07;;;;;;;12.00;2.17;;;6.90;91.20;;;;;;4895536;29;20100;-78
2024/01/02 00:48:32;;;;;;;10.63;2.63;;;6.90;91.30;;;;;;4896046;29;20036;-78
2024/01/02 00:51:00;;;;;;;7.82;2.45;;;6.80;91.40;;;;;;4898797;29;20081;-78
2024/01/02 00:53:26;;;;;;;8.20;2.28;;;6.80;91.40;;;;;;4895616;29;20037;-78
2024/01/02 00:55:52;;;;;;;14.32;2.85;;;6.80;91.50;;;;;;4885567;29;20134;-78
2024/01/02 00:58:17;;;;;;;12.40;3.55;;;6.80;91.50;;;;;;4879734;29;20036;-78
2024/01/02 01:00:43;;;;;;;14.30;2.78;;;6.80;91.60;;;;;;4902602;29;20048;-78
2024/01/02 01:03:08;;;;;;;11.68;3.00;;;6.80;91.60;;;;;;4897738;29;20100;-78
2024/01/02 01:05:34;;;;;;;11.23;2.72;;;6.90;91.70;;;;;;4896121;29;20040;-79
2024/01/02 01:07:59;;;;;;;15.48;3.05;;;6.80;91.70;;;;;;4880939;29;20041;-79
2024/01/02 01:10:25;;;;;;;13.63;3.42;;;6.80;91.80;;;;;;4879622;29;20041;-79
2024/01/02 01:12:50;;;;;;;10.98;3.17;;;6.80;91.80;;;;;;4883170;29;20041;-79
2024/01/02 01:15:16;;;;;;;16.33;3.10;;;6.80;91.90;;;;;;4897778;29;20118;-79
2024/01/02 01:17:42;;;;;;;13.50;2.63;;;6.80;91.90;;;;;;4897726;29;20112;-78
2024/01/02 01:20:08;;;;;;;10.38;2.92;;;6.90;92.10;;;;;;4878543;29;20048;-79
2024/01/02 01:22:34;;;;;;;15.48;3.28;;;6.90;92.10;;;;;;4900301;29;20045;-79
2024/01/02 01:25:00;;;;;;;12.50;3.13;;;6.90;92.20;;;;;;4900712;29;20063;-79
2024/01/02 01:27:25;;;;;;;11.82;3.20;;;6.90;92.20;;;;;;4899542;29;20040;-79
2024/01/02 01:29:51;;;;;;;11.13;2.83;;;6.90;92.20;;;;;;4880617;29;20100;-79
2024/01/02 01:32:16;;;;;;;11.18;3.40;;;6.90;92.20;;;;;;4896335;29;20033;-79
2024/01/02 01:34:42;;;;;;;12.80;3.08;;;6.90;92.20;;;;;;4878849;29;20560;-79
2024/01/02 01:37:07;;;;;;;14.15;3.67;;;6.90;92.20;;;;;;4882395;29;20072;-79
2024/01/02 01:39:33;;;;;;;10.75;3.08;;;6.90;92.30;;;;;;4877382;29;20055;-79
2024/01/02 01:41:58;;;;;;;15.65;3.05;;;6.90;92.30;;;;;;4895290;29;20045;-79
2024/01/02 01:44:24;;;;;;;11.65;2.80;;;6.90;92.30;;;;;;4881032;29;20056;-79
2024/01/02 01:46:51;;;;;;;11.68;3.38;;;6.90;92.40;;;;;;4878988;29;20049;-79
2024/01/02 01:49:17;;;;;;;7.90;2.42;;;6.90;92.40;;;;;;4902690;29;20485;-80
2024/01/02 01:51:43;;;;;;;11.55;3.13;;;7.00;92.50;;;;;;4882463;29;20068;-79
2024/01/02 01:54:13;;;;;;;12.75;3.95;;;7.00;92.50;;;;;;4879231;29;20168;-80
2024/01/02 01:56:39;;;;;;;13.75;2.88;;;7.00;92.50;;;;;;4901418;29;20064;-79
2024/01/02 01:59:05;;;;;;;10.82;3.42;;;7.00;92.60;;;;;;4901793;29;20404;-79
2024/01/02 02:01:31;;;;;;;11.02;2.72;;;7.00;92.60;;;;;;4877505;29;20055;-79
2024/01/02 02:03:59;;;;;;;9.15;3.22;;;7.00;92.60;;;;;;4882304;29;20044;-79
2024/01/02 02:06:25;;;;;;;13.73;3.60;;;7.00;92.60;;;;;;4881926;29;20048;-79
2024/01/02 02:08:51;;;;;;;12.18;3.50;;;7.00;92.60;;;;;;4895426;29;20124;-79
2024/01/02 02:11:16;;;;;;;12.65;3.33;;;7.10;92.60;;;;;;4882750;29;20075;-79
2024/01/02 02:13:43;;;;;;;8.25;3.10;;;7.10;92.70;;;;;;4896735;29;20401;-79
2024/01/02 02:16:09;;;;;;;11.20;3.80;;;7.10;92.70;;;;;;4899563;29;20386;-79
2024/01/02 02:18:34;;;;;;;13.80;3.35;;;7.10;92.70;;;;;;4881397;29;20068;-79
2024/01/02 02:21:00;;;;;;;8.73;3.42;;;7.10;92.70;;;;;;4884667;29;20049;-80
2024/01/02 02:23:25;;;;;;;11.88;3.75;;;7.10;92.70;;;;;;4897884;29;20041;-80
2024/01/02 02:25:51;;;;;;;10.27;3.67;;;7.10;92.70;;;;;;4877026;29;20040;-80
2024/01/02 02:28:16;;;;;;;9.20;3.30;;;7.10;92.70;;;;;;4881910;29;20047;-80
2024/01/02 02:30:42;;;;;;;14.75;4.68;;;7.10;92.70;;;;;;4879526;29;20877;-80
2024/01/02 02:33:08;;;;;;;8.55;3.67;;;7.20;92.80;;;;;;4862820;29;20043;-80
2024/01/02 02:35:33;;;;;;;11.43;2.97;;;7.10;92.70;;;;;;4897953;29;20519;-80
2024/01/02 02:37:59;;;;;;;9.38;3.33;;;7.20;92.80;;;;;;4864188;29;20041;-79
2024/01/02 02:40:25;;;;;;;13.65;3.75;;;7.20;92.80;;;;;;4881757;29;20045;-80
2024/01/02 02:42:51;;;;;;;12.25;4.43;;;7.20;92.80;;;;;;4891492;29;20527;-80
2024/01/02 02:45:17;;;;;;;17.08;4.60;;;7.20;92.80;;;;;;4878614;29;20064;-80
2024/01/02 02:47:42;;;;;;;11.23;3.63;;;7.20;92.80;;;;;;4895159;29;20048;-80
2024/01/02 02:50:08;;;;;;;9.20;3.15;;;7.20;92.90;;;;;;4894025;29;20378;-79
2024/01/02 02:52:34;;;;;;;10.95;4.35;;;7.20;92.90;;;;;;4894229;29;20056;-80
2024/01/02 02:55:00;;;;;;;12.38;3.50;;;7.20;92.90;;;;;;4877394;29;20068;-79
2024/01/02 02:57:26;;;;;;;10.05;3.28;;;7.20;92.80;;;;;;4881325;29;20054;-79
2024/01/02 02:59:51;;;;;;;7.82;3.50;;;7.20;92.90;;;;;;4878845;29;20128;-80
2024/01/02 03:02:17;;;;;;;11.05;3.92;;;7.20;92.80;;;;;;4880817;29;20056;-79
2024/01/02 03:04:43;;;;;;;9.30;4.03;;;7.20;92.90;;;;;;4879350;29;20052;-80
2024/01/02 03:07:10;;;;;;;14.05;4.30;;;7.20;92.80;;;;;;4876856;29;20044;-80
2024/01/02 03:09:36;;;;;;;10.65;4.30;;;7.20;92.90;;;;;;4877468;29;20049;-80
2024/01/02 03:12:02;;;;;;;16.13;4.53;;;7.20;92.80;;;;;;4879617;29;20069;-80
2024/01/02 03:14:27;;;;;;;11.30;3.70;;;7.20;92.80;;;;;;4898663;29;20043;-80
2024/01/02 03:16:53;;;;;;;9.88;3.97;;;7.20;92.90;;;;;;4881705;29;20225;-80
2024/01/02 03:19:19;;;;;;;10.15;3.67;;;7.20;92.90;;;;;;4898039;29;20084;-80
2024/01/02 03:21:45;;;;;;;12.27;3.60;;;7.20;92.90;;;;;;4896341;29;20103;-80
2024/01/02 03:24:10;;;;;;;8.90;4.05;;;7.20;92.90;;;;;;4893026;29;20397;-80
2024/01/02 03:26:36;;;;;;;11.45;3.92;;;7.80;93.00;;;;;;4882500;29;20037;-80
2024/01/02 03:29:01;;;;;;;9.40;3.65;;;7.20;92.90;;;;;;4894967;29;20112;-80
2024/01/02 03:31:27;;;;;;;8.82;3.88;;;7.20;92.90;;;;;;4881969;29;20086;-80
2024/01/02 03:33:53;;;;;;;9.40;3.85;;;7.30;92.90;;;;;;4884313;29;20050;-80
2024/01/02 03:36:20;;;;;;;13.93;4.38;;;7.30;92.90;;;;;;4877906;29;20104;-80
2024/01/02 03:38:46;;;;;;;7.10;3.55;;;7.30;92.90;;;;;;4882035;29;20056;-81
2024/01/02 03:41:12;;;;;;;5.93;3.40;;;7.30;92.90;;;;;;4884751;29;20072;-80
2024/01/02 03:43:38;;;;;;;10.70;4.03;;;7.30;92.80;;;;;;4895181;29;20052;-80
2024/01/02 03:46:04;;;;;;;11.05;3.88;;;7.30;92.90;;;;;;4888070;29;20511;-80
2024/01/02 03:48:29;;;;;;;8.25;3.80;;;7.30;92.80;;;;;;4895534;29;20044;-80
2024/01/02 03:50:55;;;;;;;8.30;3.50;;;7.30;92.90;;;;;;4883299;29;20037;-80
2024/01/02 03:53:21;;;;;;;9.38;3.55;;;7.30;92.80;;;;;;4884669;29;20105;-80
2024/01/02 03:55:46;;;;;;;5.95;3.50;;;7.30;92.80;;;;;;4868348;29;20044;-80
2024/01/02 03:58:12;;;;;;;9.32;3.13;;;7.30;92.90;;;;;;4879557;29;20061;-80
2024/01/02 04:00:39;;;;;;;7.57;3.65;;;7.30;92.90;;;;;;4880403;29;20045;-81
2024/01/02 04:03:06;;;;;;;8.70;3.60;;;7.30;92.90;;;;;;4883779;29;20047;-81
2024/01/02 04:05:32;;;;;;;7.72;3.15;;;7.30;92.90;;;;;;4883097;29;20032;-81
2024/01/02 04:07:57;;;;;;;9.52;3.20;;;7.30;92.90;;;;;;4883467;29;20048;-80
2024/01/02 04:10:23;;;;;;;6.22;3.30;;;7.40;92.90;;;;;;4883280;29;20400;-80
2024/01/02 04:12:48;;;;;;;11.05;3.72;;;7.30;92.90;;;;;;4883870;29;20043;-80
2024/01/02 04:15:14;;;;;;;8.48;3.75;;;7.30;92.90;;;;;;4883874;29;20128;-80
2024/01/02 04:17:40;;;;;;;5.57;3.10;;;7.30;92.90;;;;;;4884070;29;20572;-80
2024/01/02 04:20:06;;;;;;;4.88;2.92;;;7.30;92.90;;;;;;4883710;29;20056;-80
2024/01/02 04:22:31;;;;;;;6.60;2.50;;;7.30;92.90;;;;;;4883483;29;20064;-80
2024/01/02 04:24:57;;;;;;;5.18;2.65;;;7.40;93.00;;;;;;4884509;29;20037;-80
2024/01/02 04:27:23;;;;;;;5.90;2.28;;;7.30;93.00;;;;;;4880462;29;20092;-80
2024/01/02 04:29:48;;;;;;;6.60;2.90;;;7.30;92.90;;;;;;4886299;29;20044;-80
2024/01/02 04:32:15;;;;;;;3.58;2.20;;;7.40;92.90;;;;;;4884184;29;20036;-80
2024/01/02 04:34:40;;;;;;;6.50;2.50;;;7.40;92.90;;;;;;4868129;29;20183;-80
2024/01/02 04:37:06;;;;;;;6.45;2.30;;;7.40;93.00;;;;;;4884907;29;20044;-80
2024/01/02 04:39:32;;;;;;;5.28;2.80;;;7.40;93.00;;;;;;4885430;29;20399;-80
2024/01/02 04:41:57;;;;;;;7.05;2.63;;;7.40;93.00;;;;;;4887537;29;20039;-80
2024/01/02 04:44:23;;;;;;;4.60;2.45;;;7.40;93.00;;;;;;4869843;29;20037;-81
2024/01/02 04:46:48;;;;;;;5.75;2.38;;;7.40;93.10;;;;;;4885252;29;20037;-81
2024/01/02 04:49:14;;;;;;;4.20;1.90;;;7.40;93.00;;;;;;4869675;29;20444;-81
2024/01/02 04:51:40;;;;;;;4.57;2.22;;;7.30;93.00;;;;;;4885050;29;20059;-80
2024/01/02 04:54:07;;;;;;;5.28;2.40;;;7.40;93.10;;;;;;4885099;29;20486;-80
2024/01/02 04:56:33;;;;;;;3.00;1.80;;;7.40;93.10;;;;;;4884716;29;20072;-80
2024/01/02 04:58:59;;;;;;;2.85;2.00;;;7.30;93.10;;;;;;4902569;29;20036;-80
2024/01/02 05:01:25;;;;;;;4.05;1.90;;;7.40;93.10;;;;;;4884843;29;20045;-80
2024/01/02 05:03:50;;;;;;;3.92;1.67;;;7.40;93.10;;;;;;4901587;29;20339;-80
2024/01/02 05:06:16;;;;;;;2.40;1.75;;;7.40;93.20;;;;;;4885121;29;20124;-81
2024/01/02 05:08:42;;;;;;;4.07;1.98;;;7.40;93.20;;;;;;4884265;29;20040;-81
2024/01/02 05:11:07;;;;;;;3.00;1.80;;;7.40;93.20;;;;;;4885181;29;20040;-80
2024/01/02 05:13:33;;;;;;;4.10;1.92;;;7.40;93.20;;;;;;4884105;29;20485;-79
2024/01/02 05:15:58;;;;;;;4.10;1.70;;;7.40;93.30;;;;;;4885663;29;20036;-80
2024/01/02 05:18:24;;;;;;;4.60;2.25;;;7.30;93.30;;;;;;4884784;29;20052;-80
2024/01/02 05:20:49;;;;;;;2.85;1.58;;;7.40;93.30;;;;;;4883416;29;20409;-80
2024/01/02 05:23:15;;;;;;;2.92;2.03;;;7.40;93.30;;;;;;4884778;29;20127;-80
2024/01/02 05:25:41;;;;;;;2.13;1.50;;;7.40;93.40;;;;;;4883508;29;20067;-80
2024/01/02 05:28:07;;;;;;;2.42;1.67;;;7.40;93.40;;;;;;4881798;29;20047;-80
2024/01/02 05:30:32;;;;;;;1.40;1.05;;;7.40;93.40;;;;;;4884788;29;20104;-80
2024/01/02 05:32:58;;;;;;;1.50;1.10;;;7.40;93.40;;;;;;4883832;29;20059;-80
2024/01/02 05:35:23;;;;;;;2.47;1.00;;;7.40;93.40;;;;;;4901428;29;20444;-80
2024/01/02 05:37:49;;;;;;;1.58;1.10;;;7.40;93.40;;;;;;4899580;29;20052;-80
2024/01/02 05:40:14;;;;;;;1.85;1.10;;;7.50;93.50;;;;;;4882954;29;20048;-80
2024/01/02 05:42:40;;;;;;;2.10;1.10;;;7.50;93.50;;;;;;4900374;29;20064;-80
2024/01/02 05:45:06;;;;;;;1.92;1.08;;;7.50;93.50;;;;;;4883851;29;20489;-80
2024/01/02 05:47:32;;;;;;;1.92;1.30;;;7.50;93.50;;;;;;4883365;29;20453;-80
2024/01/02 05:49:57;;;;;;;1.98;1.20;;;7.50;93.50;;;;;;4883180;29;20105;-80
2024/01/02 05:52:23;;;;;;;1.88;1.20;;;7.50;93.50;;;;;;4899186;29;20440;-80
2024/01/02 05:54:48;;;;;;;2.53;1.42;;;7.50;93.50;;;;;;4882906;29;20049;-80
2024/01/02 05:57:14;;;;;;;2.95;1.17;;;7.50;93.60;;;;;;4900318;29;20104;-79
2024/01/02 05:59:39;;;;;;;3.47;1.30;;;7.50;93.50;;;;;;4899916;29;20036;-82
2024/01/02 06:02:05;;;;;;;1.35;1.02;;;7.50;93.60;;;;;;4883366;29;20096;-80
2024/01/02 06:04:31;;;;;;;2.75;1.63;;;7.50;93.60;;;;;;4901497;29;20036;-79
2024/01/02 06:06:57;;;;;;;1.40;0.95;;;7.60;93.60;;;;;;4884151;29;20143;-80
2024/01/02 06:09:23;;;;;;;2.95;1.10;;;7.60;93.70;;;;;;4869553;29;20522;-80
2024/01/02 06:11:49;;;;;;;1.67;0.90;;;7.60;93.70;;;;;;4900020;29;20115;-80
2024/01/02 06:14:15;;;;;;;1.27;0.98;;;7.60;93.70;;;;;;4883829;29;20075;-80
2024/01/02 06:16:41;;;;;;;1.40;0.90;;;7.60;93.70;;;;;;4884452;29;20072;-80
2024/01/02 06:19:07;;;;;;;1.08;0.80;;;7.70;93.80;;;;;;4883540;29;20139;-81
2024/01/02 06:21:32;;;;;;;1.35;1.00;;;7.70;93.80;;;;;;4881795;29;20092;-80
2024/01/02 06:23:58;;;;;;;2.20;0.98;;;7.70;93.80;;;;;;4888155;29;20043;-80
2024/01/02 06:26:24;;;;;;;1.27;1.00;;;7.70;93.80;;;;;;4889524;29;20044;-80
2024/01/02 06:28:49;;;;;;;1.20;0.90;;;7.80;93.90;;;;;;4899338;29;20043;-80
2024/01/02 06:31:15;;;;;;;1.67;1.20;;;7.80;93.90;;;;;;4882178;29;20187;-79
2024/01/02 06:33:44;;;;;;;2.00;1.20;;;7.80;93.90;;;;;;4882349;29;20115;-79
2024/01/02 06:36:10;;;;;;;2.42;1.15;;;7.80;93.90;;;;;;4895933;29;20047;-79
2024/01/02 06:38:36;;;;;;;1.65;1.10;;;7.80;93.90;;;;;;4879915;29;20033;-79
2024/01/02 06:41:02;;;;;;;1.63;1.10;;;7.90;93.90;;;;;;4880032;29;20115;-79
2024/01/02 06:43:28;;;;;;;1.63;0.93;;;7.90;94.00;;;;;;4881463;29;20055;-79
2024/01/02 06:45:54;;;;;;;1.73;0.93;;;7.90;94.00;;;;;;4886025;29;20041;-79
2024/01/02 06:48:19;;;;;;;1.70;0.95;;;8.00;94.00;;;;;;4881514;29;20449;-80
2024/01/02 06:50:45;;;;;;;1.38;1.00;;;8.00;94.00;;;;;;4893481;29;20048;-80
2024/01/02 06:53:11;;;;;;;1.75;1.10;;;8.00;94.20;;;;;;4882608;29;20412;-80
2024/01/02 06:55:36;;;;;;;1.73;0.82;;;8.10;94.10;;;;;;4883385;29;20052;-79
2024/01/02 06:58:02;;;;;;;1.40;0.98;;;8.10;94.10;;;;;;4884178;29;20149;-79
2024/01/02 07:00:28;;;;;;;1.58;1.10;;;8.10;94.10;;;;;;4877227;29;20041;-79
2024/01/02 07:02:54;;;;;;;1.67;1.10;;;8.20;94.20;;;;;;4877930;29;20072;-79
2024/01/02 07:05:19;;;;;;;1.63;1.10;;;8.20;94.20;;;;;;4877879;29;20094;-79
2024/01/02 07:07:46;;;;;;;1.88;1.17;;;8.20;94.20;;;;;;4877931;29;20564;-79
2024/01/02 07:10:12;;;;;;;2.40;1.40;;;8.30;94.30;;;;;;4885230;29;20493;-79
2024/01/02 07:12:37;;;;;;;2.00;1.20;;;8.30;94.30;;;;;;4876849;29;20048;-79
2024/01/02 07:15:05;;;;;;;2.58;1.00;;;8.30;94.30;;;;;;4881158;29;20614;-79
2024/01/02 07:17:31;;;;;;;2.40;1.60;;;8.30;94.30;;;;;;4885166;29;20050;-80
2024/01/02 07:19:58;;;;;;;2.65;1.70;;;8.40;94.30;;;;;;4880364;29;20057;-80
2024/01/02 07:22:24;;;;;;;2.38;1.60;;;8.40;94.40;;;;;;4880223;29;20119;-80
2024/01/02 07:24:49;;;;;;;2.72;1.50;;;8.50;94.40;;;;;;4877963;29;20072;-79
2024/01/02 07:27:15;;;;;;;3.20;1.77;;;8.50;94.40;;;;;;4900756;29;20506;-79
2024/01/02 07:29:41;;;;;;;3.10;1.73;;;8.50;94.40;;;;;;4893968;29;20040;-79
2024/01/02 07:32:06;;;;;;;3.35;1.85;;;8.60;94.50;;;;;;4897882;29;20115;-79
2024/01/02 07:34:32;;;;;;;4.30;2.30;;;8.60;94.50;;;;;;4879569;29;20044;-79
2024/01/02 07:36:58;;;;;;;4.85;2.40;;;8.60;94.50;;;;;;4879292;29;20551;-79
2024/01/02 07:39:24;;;;;;;3.60;2.08;;;8.60;94.50;;;;;;4882168;29;20040;-79
2024/01/02 07:41:50;;;;;;;5.32;2.83;;;8.70;94.60;;;;;;4883171;29;20382;-79
2024/01/02 07:44:15;;;;;;;6.30;2.53;;;8.70;94.60;;;;;;4880373;29;20045;-79
2024/01/02 07:46:41;;;;;;;6.13;2.60;;;8.70;94.60;;;;;;4882191;29;20500;-80
2024/01/02 07:49:06;;;;;;;5.18;2.50;;;8.80;94.60;;;;;;4878856;29;20040;-79
2024/01/02 07:51:32;;;;;;;6.78;2.75;;;8.80;94.60;;;;;;4879412;29;20494;-80
2024/01/02 07:53:57;;;;;;;8.18;3.22;;;8.80;94.70;;;;;;4879023;29;20040;-80
2024/01/02 07:56:26;;;;;;;7.32;2.50;;;8.80;94.70;;;;;;4862871;29;20508;-79
2024/01/02 07:58:51;;;;;;;12.95;3.47;;;8.90;94.70;;;;;;4877804;29;20040;-79
2024/01/02 08:01:17;;;;;;;9.10;2.60;;;8.90;94.70;;;;;;4897518;29;20024;-79
2024/01/02 08:03:44;;;;;;;12.05;2.55;;;8.90;94.80;;;;;;4882570;29;20044;-79
2024/01/02 08:06:09;;;;;;;14.77;3.30;;;9.00;94.80;;;;;;4878554;29;20041;-79
2024/01/02 08:08:35;;;;;;;17.40;3.20;;;9.00;94.80;;;;;;4891620;29;20041;-79
2024/01/02 08:11:01;;;;;;;23.13;3.40;;;9.10;94.90;;;;;;4881170;29;20041;-81
2024/01/02 08:13:26;;;;;;;18.73;3.15;;;9.10;94.90;;;;;;4880164;29;20040;-79
2024/01/02 08:15:52;;;;;;;18.58;3.40;;;9.10;94.90;;;;;;4886309;29;20071;-83
2024/01/02 08:18:18;;;;;;;26.73;4.68;;;9.10;94.90;;;;;;4890040;29;20053;-83
2024/01/02 08:20:44;;;;;;;20.63;3.70;;;9.20;95.00;;;;;;4889286;29;20048;-83
2024/01/02 08:23:09;;;;;;;20.08;3.63;;;9.30;95.00;;;;;;4874232;29;20040;-80
2024/01/02 08:25:35;;;;;;;20.38;3.20;;;9.30;95.00;;;;;;4906410;29;20086;-79
2024/01/02 08:28:01;;;;;;;21.42;3.63;;;9.40;95.00;;;;;;4884275;29;20044;-79
2024/01/02 08:30:26;;;;;;;22.38;2.85;;;9.40;95.00;;;;;;4901304;29;20053;-79
2024/01/02 08:32:52;;;;;;;20.13;3.13;;;9.50;95.10;;;;;;4900841;29;20037;-79
2024/01/02 08:35:18;;;;;;;24.02;3.33;;;9.50;95.10;;;;;;4882132;29;20122;-79
2024/01/02 08:37:44;;;;;;;20.42;3.40;;;9.50;95.10;;;;;;4884638;29;20040;-79
2024/01/02 08:40:11;;;;;;;33.80;3.85;;;9.60;95.10;;;;;;4883988;29;20041;-79
2024/01/02 08:42:37;;;;;;;20.83;3.58;;;9.60;95.10;;;;;;4865482;29;20052;-79
2024/01/02 08:45:06;;;;;;;31.33;4.00;;;9.70;95.20;;;;;;4901250;29;20056;-79
2024/01/02 08:47:33;;;;;;;17.85;3.60;;;9.70;95.20;;;;;;4869196;29;20044;-80
2024/01/02 08:49:59;;;;;;;20.15;3.85;;;9.70;95.10;;;;;;4871749;29;20128;-82
2024/01/02 08:52:25;;;;;;;21.67;3.35;;;9.80;95.20;;;;;;4883989;29;20068;-79
2024/01/02 08:54:50;;;;;;;17.33;3.42;;;9.80;95.20;;;;;;4886544;29;20081;-79
2024/01/02 08:57:16;;;;;;;19.17;4.05;;;9.80;95.20;;;;;;4899536;29;20063;-86
2024/01/02 08:59:41;;;;;;;22.08;4.43;;;9.80;95.20;;;;;;4883272;29;20049;-80
2024/01/02 09:02:07;;;;;;;20.35;3.58;;;9.90;95.20;;;;;;4886220;29;20410;-79
2024/01/02 09:04:33;;;;;;;26.00;4.32;;;9.90;95.20;;;;;;4887556;29;20084;-79
2024/01/02 09:06:58;;;;;;;16.98;3.53;;;10.00;95.20;;;;;;4886306;29;20048;-80
2024/01/02 09:09:24;;;;;;;23.23;3.60;;;10.00;95.20;;;;;;4882799;29;20051;-80
2024/01/02 09:11:50;;;;;;;24.70;3.55;;;10.10;95.20;;;;;;4889827;29;20041;-80
2024/01/02 09:14:15;;;;;;;23.92;3.80;;;10.20;95.30;;;;;;4891726;29;20058;-79
2024/01/02 09:16:43;;;;;;;16.73;3.20;;;10.10;95.20;;;;;;4885263;29;20045;-79
2024/01/02 09:19:09;;;;;;;18.02;2.88;;;10.20;95.20;;;;;;4885817;29;20052;-80
2024/01/02 09:21:34;;;;;;;17.20;3.42;;;10.20;95.20;;;;;;4887766;29;20040;-80
2024/01/02 09:24:00;;;;;;;20.55;3.83;;;10.30;95.40;;;;;;4886724;29;20037;-80
2024/01/02 09:26:27;;;;;;;21.95;3.90;;;10.30;95.20;;;;;;4872500;29;20036;-80
2024/01/02 09:28:53;;;;;;;19.67;3.67;;;10.40;95.20;;;;;;4871977;29;20064;-80
2024/01/02 09:31:19;;;;;;;20.10;3.78;;;10.40;95.20;;;;;;4888168;29;20131;-80
2024/01/02 09:33:45;;;;;;;18.70;2.88;;;10.40;95.10;;;;;;4885732;29;20137;-80
2024/01/02 09:36:13;;;;;;;16.77;2.42;;;10.40;95.10;;;;;;4899683;29;20112;-79
2024/01/02 09:38:39;;;;;;;20.48;3.45;;;10.40;95.10;;;;;;4901283;29;20048;-79
2024/01/02 09:41:34;;;;;;;16.92;3.10;;;10.50;95.10;;;;;;4881907;29;20048;-79
2024/01/02 09:44:30;;;;;;;16.63;2.88;;;10.50;95.10;;;;;;4902818;29;20073;-79
2024/01/02 09:47:20;;;;;;;14.90;2.70;;;10.50;95.10;;;;;;4886636;29;20055;-79
2024/01/02 09:50:12;;;;;;;12.68;2.67;;;10.50;95.00;;;;;;4902208;29;20528;-79
2024/01/02 09:53:00;;;;;;;15.18;3.30;;;10.60;95.00;;;;;;4882124;29;20067;-79
2024/01/02 09:55:46;;;;;;;16.80;3.30;;;10.50;94.90;;;;;;4898045;29;20033;-78
2024/01/02 09:58:18;;;;;;;24.33;3.38;;;10.60;94.90;;;;;;4896343;29;20045;-78
2024/01/02 10:01:20;;;;;;;16.05;2.47;;;10.60;94.90;;;;;;4881264;29;20044;-78
2024/01/02 10:04:50;;;;;;;13.68;3.20;;;10.60;94.90;;;;;;4883487;29;20500;-78
2024/01/02 10:07:26;;;;;;;18.70;2.97;;;10.60;94.90;;;;;;4806073;29;20054;-79
2024/01/02 10:10:23;;;;;;;17.33;3.63;;;10.70;94.90;;;;;;4794027;29;20091;-78
2024/01/02 10:12:58;;;;;;;17.98;3.72;;;10.70;94.80;;;;;;4861048;29;20056;-78
2024/01/02 10:15:23;;;;;;;;;;;10.70;94.80;;;;;;4898515;29;20052;-78
2024/01/02 10:18:18;;;;;;;17.85;2.95;;;10.70;94.70;;;;;;4897648;29;19931;-78
2024/01/02 10:20:59;;;;;;;19.73;4.68;;;10.70;94.80;;;;;;4898015;29;20040;-78
2024/01/02 10:23:51;;;;;;;18.13;4.03;;;10.80;94.80;;;;;;4896994;29;20048;-79
2024/01/02 10:26:18;;;;;;;18.60;4.82;;;10.80;94.80;;;;;;4896536;29;20032;-79
2024/01/02 10:28:48;;;;;;;17.67;4.53;;;10.90;94.70;;;;;;4883756;29;20376;-79
2024/01/02 10:31:26;;;;;;;23.60;6.07;;;10.80;94.70;;;;;;4898122;29;20055;-78
2024/01/02 10:34:32;;;;;;;19.95;7.43;;;10.80;94.70;;;;;;4882163;29;20048;-78
2024/01/02 10:37:04;;;;;;;27.25;7.93;;;10.90;94.70;;;;;;4862119;29;20061;-78
2024/01/02 10:39:45;;;;;;;33.15;8.15;;;10.90;94.60;;;;;;4895975;29;20047;-78
2024/01/02 10:42:39;;;;;;;24.13;6.13;;;10.90;94.60;;;;;;4893828;29;20037;-78
2024/01/02 10:45:27;;;;;;;27.40;8.07;;;11.00;94.70;;;;;;4856324;29;20124;-78
2024/01/02 10:47:55;;;;;;;21.58;5.82;;;11.00;94.60;;;;;;4895323;29;20055;-78
2024/01/02 10:50:39;;;;;;;27.30;7.00;;;11.00;94.60;;;;;;4878557;29;20051;-78
2024/01/02 10:53:32;;;;;;;23.58;5.20;;;11.00;94.60;;;;;;4874460;29;20409;-78
2024/01/02 10:56:13;;;;;;;22.90;5.07;;;11.10;94.70;;;;;;4895547;29;20078;-79
2024/01/02 10:58:57;;;;;;;23.02;5.70;;;11.00;94.50;;;;;;4901201;29;20072;-79
2024/01/02 11:01:26;;;;;;;21.42;5.28;;;11.10;94.50;;;;;;4900154;29;20032;-79
2024/01/02 11:04:01;;;;;;;21.40;3.55;;;11.10;94.50;;;;;;4896149;29;20485;-78
2024/01/02 11:06:57;;;;;;;16.75;3.30;;;11.10;94.40;;;;;;4881873;29;20059;-79
2024/01/02 11:09:55;;;;;;;15.05;3.20;;;11.20;94.40;;;;;;4874932;29;20127;-78
2024/01/02 11:12:23;;;;;;;17.40;3.67;;;11.20;94.40;;;;;;4862537;29;20051;-78
2024/01/02 11:14:50;;;;;;;16.45;3.15;;;11.20;94.30;;;;;;4896763;29;20132;-78
2024/01/02 11:17:18;;;;;;;21.42;4.22;;;11.20;94.30;;;;;;4861230;29;20128;-78
2024/01/02 11:20:05;;;;;;;17.50;4.07;;;11.20;94.30;;;;;;4899115;29;20139;-78
2024/01/02 11:22:49;;;;;;;16.15;3.33;;;11.20;94.20;;;;;;4889264;29;20037;-78
2024/01/02 11:25:18;;;;;;;20.95;4.70;;;11.20;94.20;;;;;;4893914;29;20043;-78
2024/01/02 11:27:44;;;;;;;24.58;4.47;;;11.20;94.20;;;;;;4887548;29;20067;-78
2024/01/02 11:30:12;;;;;;;19.85;4.22;;;11.20;94.10;;;;;;4881161;29;20092;-78
2024/01/02 11:33:05;;;;;;;26.70;5.22;;;11.30;94.10;;;;;;4891732;29;20056;-78
2024/01/02 11:35:40;;;;;;;18.58;4.55;;;11.30;94.10;;;;;;4876182;29;20044;-78
2024/01/02 11:38:11;;;;;;;26.92;5.05;;;11.30;94.10;;;;;;4878467;29;20123;-78
2024/01/02 11:40:56;;;;;;;20.98;5.43;;;11.30;94.10;;;;;;4878204;29;20052;-79
2024/01/02 11:43:35;;;;;;;17.83;3.38;;;11.30;94.00;;;;;;4880851;29;20049;-78
2024/01/02 11:46:06;;;;;;;28.60;6.03;;;11.30;94.00;;;;;;4877521;29;20103;-78
2024/01/02 11:48:59;;;;;;;21.25;5.10;;;11.30;94.00;;;;;;4894265;29;20045;-78
2024/01/02 11:51:29;;;;;;;28.50;4.72;;;11.30;94.00;;;;;;4880970;29;20065;-80
2024/01/02 11:54:38;;;;;;;25.58;6.07;;;11.40;94.00;;;;;;4879158;29;20040;-80
2024/01/02 11:57:11;;;;;;;23.00;4.97;;;11.40;94.00;;;;;;4878194;29;20151;-79
2024/01/02 11:59:51;;;;;;;31.05;5.28;;;11.30;94.00;;;;;;4881982;29;20500;-79
2024/01/02 12:02:38;;;;;;;27.35;5.43;;;11.40;93.90;;;;;;4877160;29;20040;-78
2024/01/02 12:05:06;;;;;;;27.13;5.70;;;11.40;93.90;;;;;;4881684;29;20044;-78
2024/01/02 12:07:40;;;;;;;20.40;4.68;;;11.40;93.90;;;;;;4894183;29;20040;-78
2024/01/02 12:10:07;;;;;;;31.10;5.43;;;11.30;93.80;;;;;;4890684;29;20504;-78
2024/01/02 12:13:02;;;;;;;26.85;5.50;;;11.40;93.80;;;;;;4895990;29;20496;-78
2024/01/02 12:15:48;;;;;;;26.52;5.75;;;11.30;93.80;;;;;;4881987;29;20040;-78
2024/01/02 12:18:15;;;;;;;23.33;6.32;;;11.30;93.80;;;;;;4878084;29;20104;-79
2024/01/02 12:21:01;;;;;;;19.67;5.18;;;11.30;93.80;;;;;;4896160;29;20048;-78
2024/01/02 12:23:31;;;;;;;22.75;5.00;;;11.30;93.80;;;;;;4879116;29;20429;-78
2024/01/02 12:26:21;;;;;;;24.52;5.53;;;11.30;93.70;;;;;;4895378;29;20515;-78
2024/01/02 12:28:48;;;;;;;21.40;5.32;;;11.30;93.70;;;;;;4893853;29;20032;-79
2024/01/02 12:31:35;;;;;;;26.30;5.43;;;11.30;93.70;;;;;;4879914;29;20405;-79
2024/01/02 12:34:22;;;;;;;32.55;6.25;;;11.30;93.70;;;;;;4880867;29;20044;-78
2024/01/02 12:37:12;;;;;;;18.75;4.90;;;11.30;93.80;;;;;;4894256;29;20128;-78
2024/01/02 12:39:39;;;;;;;25.25;6.53;;;11.30;93.80;;;;;;4897624;29;20100;-78
2024/01/02 12:42:08;;;;;;;24.65;5.63;;;11.30;93.70;;;;;;4881736;29;20040;-78
2024/01/02 12:44:37;;;;;;;26.50;6.88;;;11.30;93.70;;;;;;4880046;29;20051;-78
2024/01/02 12:47:08;;;;;;;26.42;5.68;;;11.30;93.70;;;;;;4898443;29;20076;-78
2024/01/02 12:49:46;;;;;;;23.55;5.35;;;11.30;93.70;;;;;;4894453;29;20072;-78
2024/01/02 12:52:20;;;;;;;30.65;5.47;;;11.30;93.70;;;;;;4895173;29;20047;-78
2024/01/02 12:54:48;;;;;;;25.55;6.35;;;11.30;93.70;;;;;;4894165;29;20044;-78
2024/01/02 12:57:15;;;;;;;29.65;6.30;;;11.30;93.70;;;;;;4876828;29;20489;-79
2024/01/02 12:59:41;;;;;;;31.92;6.13;;;11.30;93.70;;;;;;4898344;29;20041;-80